sensor_id;sensor_type;location;lat;lon;timestamp;pressure;altitude;pressure_sealevel;temperature;humidity
50087;BME280;35967;50.718;7.050;2024-02-26T00:04:53;98930.88;;;7.15;88.12
50087;BME280;35967;50.718;7.050;2024-02-26T00:14:57;98922.13;;;7.21;91.19
50087;BME280;35967;50.718;7.050;2024-02-26T00:25:01;98912.88;;;7.17;90.40
50087;BME280;35967;50.718;7.050;2024-02-26T00:35:06;98906.25;;;7.11;92.62
50087;BME280;35967;50.718;7.050;2024-02-26T00:45:11;98895.38;;;7.06;95.43
50087;BME280;35967;50.718;7.050;2024-02-26T00:55:16;98891.97;;;7.05;95.14
50087;BME280;35967;50.718;7.050;2024-02-26T01:05:19;98902.38;;;7.01;94.41
50087;BME280;35967;50.718;7.050;2024-02-26T01:15:24;98898.88;;;7.03;96.11
50087;BME280;35967;50.718;7.050;2024-02-26T01:25:27;98891.69;;;6.89;98.93
50087;BME280;35967;50.718;7.050;2024-02-26T01:35:32;98890.97;;;6.86;98.50
50087;BME280;35967;50.718;7.050;2024-02-26T01:45:35;98880.81;;;6.84;98.61
50087;BME280;35967;50.718;7.050;2024-02-26T01:55:39;98869.53;;;6.65;100.00
50087;BME280;35967;50.718;7.050;2024-02-26T02:05:43;98870.06;;;6.49;100.00
50087;BME280;35967;50.718;7.050;2024-02-26T02:15:48;98867.59;;;6.46;99.33
50087;BME280;35967;50.718;7.050;2024-02-26T02:25:52;98860.94;;;6.42;100.00
50087;BME280;35967;50.718;7.050;2024-02-26T02:35:56;98867.97;;;6.35;100.00
50087;BME280;35967;50.718;7.050;2024-02-26T02:46:02;98864.91;;;6.51;100.00
50087;BME280;35967;50.718;7.050;2024-02-26T02:56:05;98882.78;;;6.51;100.00
50087;BME280;35967;50.718;7.050;2024-02-26T03:06:10;98881.69;;;6.58;100.00
50087;BME280;35967;50.718;7.050;2024-02-26T03:16:13;98874.09;;;6.56;100.00
50087;BME280;35967;50.718;7.050;2024-02-26T03:26:18;98878.38;;;6.56;100.00
50087;BME280;35967;50.718;7.050;2024-02-26T03:36:21;98877.00;;;6.45;100.00
50087;BME280;35967;50.718;7.050;2024-02-26T03:46:25;98875.19;;;6.49;100.00
50087;BME280;35967;50.718;7.050;2024-02-26T03:56:28;98886.28;;;6.48;100.00
50087;BME280;35967;50.718;7.050;2024-02-26T04:06:33;98903.53;;;6.41;100.00
50087;BME280;35967;50.718;7.050;2024-02-26T04:16:36;98910.28;;;6.44;100.00
50087;BME280;35967;50.718;7.050;2024-02-26T04:26:41;98904.53;;;6.37;100.00
50087;BME280;35967;50.718;7.050;2024-02-26T04:36:44;98908.41;;;6.24;100.00
50087;BME280;35967;50.718;7.050;2024-02-26T04:46:51;98910.91;;;6.25;100.00
50087;BME280;35967;50.718;7.050;2024-02-26T04:56:54;98911.09;;;6.19;100.00
50087;BME280;35967;50.718;7.050;2024-02-26T05:06:58;98906.66;;;6.24;100.00
50087;BME280;35967;50.718;7.050;2024-02-26T05:17:02;98902.22;;;6.29;100.00
50087;BME280;35967;50.718;7.050;2024-02-26T05:27:06;98908.91;;;6.34;100.00
50087;BME280;35967;50.718;7.050;2024-02-26T05:37:09;98912.94;;;6.14;100.00
50087;BME280;35967;50.718;7.050;2024-02-26T05:47:14;98925.09;;;6.07;100.00
50087;BME280;35967;50.718;7.050;2024-02-26T05:57:19;98925.28;;;6.01;100.00
50087;BME280;35967;50.718;7.050;2024-02-26T06:07:23;98944.25;;;5.92;100.00
50087;BME280;35967;50.718;7.050;2024-02-26T06:17:26;98942.72;;;5.87;100.00
50087;BME280;35967;50.718;7.050;2024-02-26T06:27:31;98949.28;;;5.95;100.00
50087;BME280;35967;50.718;7.050;2024-02-26T06:37:35;98963.31;;;6.10;100.00
50087;BME280;35967;50.718;7.050;2024-02-26T06:47:40;98987.47;;;5.98;100.00
50087;BME280;35967;50.718;7.050;2024-02-26T06:57:44;98989.84;;;6.06;100.00
50087;BME280;35967;50.718;7.050;2024-02-26T07:07:49;99003.03;;;5.91;100.00
50087;BME280;35967;50.718;7.050;2024-02-26T07:17:52;99023.22;;;5.98;100.00
50087;BME280;35967;50.718;7.050;2024-02-26T07:27:56;99020.63;;;6.02;100.00
50087;BME280;35967;50.718;7.050;2024-02-26T07:37:59;99029.84;;;6.06;100.00
50087;BME280;35967;50.718;7.050;2024-02-26T07:48:04;99051.31;;;5.98;100.00
50087;BME280;35967;50.718;7.050;2024-02-26T07:58:07;99054.72;;;6.00;100.00
50087;BME280;35967;50.718;7.050;2024-02-26T08:08:12;99061.50;;;6.02;100.00
50087;BME280;35967;50.718;7.050;2024-02-26T08:18:15;99080.13;;;6.05;100.00
50087;BME280;35967;50.718;7.050;2024-02-26T08:28:20;99089.47;;;6.06;100.00
50087;BME280;35967;50.718;7.050;2024-02-26T08:38:22;99107.63;;;5.95;100.00
50087;BME280;35967;50.718;7.050;2024-02-26T08:48:27;99114.19;;;6.04;100.00
50087;BME280;35967;50.718;7.050;2024-02-26T08:58:31;99120.75;;;5.81;100.00
50087;BME280;35967;50.718;7.050;2024-02-26T09:08:35;99141.13;;;5.84;100.00
50087;BME280;35967;50.718;7.050;2024-02-26T09:18:39;99148.72;;;5.86;100.00
50087;BME280;35967;50.718;7.050;2024-02-26T09:28:44;99159.78;;;5.87;100.00
50087;BME280;35967;50.718;7.050;2024-02-26T09:38:47;99162.44;;;6.73;100.00
50087;BME280;35967;50.718;7.050;2024-02-26T09:49:02;99174.84;;;5.96;100.00
50087;BME280;35967;50.718;7.050;2024-02-26T09:59:15;99185.00;;;5.97;100.00
50087;BME280;35967;50.718;7.050;2024-02-26T10:09:21;99190.91;;;6.01;100.00
50087;BME280;35967;50.718;7.050;2024-02-26T10:19:25;99199.28;;;6.38;100.00
50087;BME280;35967;50.718;7.050;2024-02-26T10:29:31;99205.84;;;6.46;100.00
50087;BME280;35967;50.718;7.050;2024-02-26T10:39:36;99221.50;;;6.36;100.00
50087;BME280;35967;50.718;7.050;2024-02-26T10:49:45;99233.09;;;6.47;100.00
50087;BME280;35967;50.718;7.050;2024-02-26T10:59:49;99238.69;;;6.60;100.00
50087;BME280;35967;50.718;7.050;2024-02-26T11:09:56;99252.22;;;6.64;100.00
50087;BME280;35967;50.718;7.050;2024-02-26T11:19:59;99276.00;;;6.68;100.00
50087;BME280;35967;50.718;7.050;2024-02-26T11:30:09;99280.06;;;6.43;100.00
50087;BME280;35967;50.718;7.050;2024-02-26T11:40:13;99284.13;;;6.51;100.00
50087;BME280;35967;50.718;7.050;2024-02-26T11:50:36;99284.84;;;6.56;100.00
50087;BME280;35967;50.718;7.050;2024-02-26T12:00:39;99277.88;;;6.61;100.00
50087;BME280;35967;50.718;7.050;2024-02-26T12:10:44;99292.91;;;6.72;100.00
50087;BME280;35967;50.718;7.050;2024-02-26T12:20:58;99304.13;;;6.66;100.00
50087;BME280;35967;50.718;7.050;2024-02-26T12:31:04;99321.00;;;6.73;100.00
50087;BME280;35967;50.718;7.050;2024-02-26T12:41:07;99336.38;;;6.72;100.00
50087;BME280;35967;50.718;7.050;2024-02-26T12:51:12;99344.59;;;6.83;100.00
50087;BME280;35967;50.718;7.050;2024-02-26T13:01:17;99371.47;;;6.67;100.00
50087;BME280;35967;50.718;7.050;2024-02-26T13:11:22;99388.88;;;6.85;100.00
50087;BME280;35967;50.718;7.050;2024-02-26T13:21:25;99405.69;;;6.94;100.00
50087;BME280;35967;50.718;7.050;2024-02-26T13:31:32;99412.91;;;6.79;100.00
50087;BME280;35967;50.718;7.050;2024-02-26T13:41:45;99418.31;;;6.69;100.00
50087;BME280;35967;50.718;7.050;2024-02-26T13:51:50;99428.59;;;6.66;100.00
50087;BME280;35967;50.718;7.050;2024-02-26T14:01:53;99445.47;;;6.73;100.00
50087;BME280;35967;50.718;7.050;2024-02-26T14:11:58;99448.72;;;6.78;100.00
50087;BME280;35967;50.718;7.050;2024-02-26T14:22:02;99461.38;;;6.84;100.00
50087;BME280;35967;50.718;7.050;2024-02-26T14:32:06;99464.28;;;7.03;100.00
50087;BME280;35967;50.718;7.050;2024-02-26T14:42:10;99485.41;;;6.78;100.00
50087;BME280;35967;50.718;7.050;2024-02-26T14:52:15;99504.06;;;6.82;100.00
50087;BME280;35967;50.718;7.050;2024-02-26T15:02:18;99513.50;;;6.80;100.00
50087;BME280;35967;50.718;7.050;2024-02-26T15:12:22;99524.19;;;6.94;100.00
50087;BME280;35967;50.718;7.050;2024-02-26T15:22:32;99535.06;;;7.03;100.00
50087;BME280;35967;50.718;7.050;2024-02-26T15:32:37;99552.88;;;7.07;100.00
50087;BME280;35967;50.718;7.050;2024-02-26T15:42:40;99563.22;;;7.04;100.00
50087;BME280;35967;50.718;7.050;2024-02-26T15:52:44;99563.09;;;7.09;100.00
50087;BME280;35967;50.718;7.050;2024-02-26T16:02:48;99579.47;;;7.35;100.00
50087;BME280;35967;50.718;7.050;2024-02-26T16:12:54;99607.63;;;7.36;100.00
50087;BME280;35967;50.718;7.050;2024-02-26T16:22:58;99620.09;;;7.49;100.00
50087;BME280;35967;50.718;7.050;2024-02-26T16:33:07;99641.31;;;7.52;100.00
50087;BME280;35967;50.718;7.050;2024-02-26T16:43:12;99651.81;;;7.43;100.00
50087;BME280;35967;50.718;7.050;2024-02-26T16:53:17;99676.47;;;7.46;100.00
50087;BME280;35967;50.718;7.050;2024-02-26T17:03:20;99693.56;;;7.45;100.00
50087;BME280;35967;50.718;7.050;2024-02-26T17:13:25;99709.00;;;7.42;100.00
50087;BME280;35967;50.718;7.050;2024-02-26T17:23:30;99728.81;;;7.34;100.00
50087;BME280;35967;50.718;7.050;2024-02-26T17:33:35;99748.44;;;7.35;100.00
50087;BME280;35967;50.718;7.050;2024-02-26T17:43:38;99767.31;;;7.31;100.00
50087;BME280;35967;50.718;7.050;2024-02-26T17:53:44;99776.59;;;7.35;100.00
50087;BME280;35967;50.718;7.050;2024-02-26T18:03:47;99797.03;;;7.38;100.00
50087;BME280;35967;50.718;7.050;2024-02-26T18:13:54;99815.09;;;7.32;100.00
50087;BME280;35967;50.718;7.050;2024-02-26T18:23:58;99823.59;;;7.32;100.00
50087;BME280;35967;50.718;7.050;2024-02-26T18:34:03;99840.66;;;7.33;100.00
50087;BME280;35967;50.718;7.050;2024-02-26T18:44:06;99857.78;;;7.30;100.00
50087;BME280;35967;50.718;7.050;2024-02-26T18:54:11;99869.63;;;7.34;100.00
50087;BME280;35967;50.718;7.050;2024-02-26T19:04:14;99900.34;;;7.34;100.00
50087;BME280;35967;50.718;7.050;2024-02-26T19:14:19;99914.06;;;7.33;100.00
50087;BME280;35967;50.718;7.050;2024-02-26T19:24:22;99932.03;;;7.30;100.00
50087;BME280;35967;50.718;7.050;2024-02-26T19:34:27;99947.34;;;7.31;100.00
50087;BME280;35967;50.718;7.050;2024-02-26T19:44:30;99973.13;;;7.23;100.00
50087;BME280;35967;50.718;7.050;2024-02-26T19:54:36;99990.31;;;7.17;100.00
50087;BME280;35967;50.718;7.050;2024-02-26T20:04:39;100011.06;;;7.01;100.00
50087;BME280;35967;50.718;7.050;2024-02-26T20:14:44;100026.69;;;7.33;100.00
50087;BME280;35967;50.718;7.050;2024-02-26T20:24:47;100034.00;;;7.06;100.00
50087;BME280;35967;50.718;7.050;2024-02-26T20:34:52;100041.72;;;7.03;100.00
50087;BME280;35967;50.718;7.050;2024-02-26T20:44:55;100059.72;;;6.98;100.00
50087;BME280;35967;50.718;7.050;2024-02-26T20:55:00;100075.06;;;7.00;100.00
50087;BME280;35967;50.718;7.050;2024-02-26T21:05:03;100093.00;;;6.97;100.00
50087;BME280;35967;50.718;7.050;2024-02-26T21:15:09;100104.22;;;6.89;100.00
50087;BME280;35967;50.718;7.050;2024-02-26T21:25:12;100134.88;;;6.92;100.00
50087;BME280;35967;50.718;7.050;2024-02-26T21:35:17;100148.53;;;6.90;100.00
50087;BME280;35967;50.718;7.050;2024-02-26T21:45:20;100162.16;;;6.92;100.00
50087;BME280;35967;50.718;7.050;2024-02-26T21:55:25;100184.50;;;6.82;100.00
50087;BME280;35967;50.718;7.050;2024-02-26T22:05:29;100187.81;;;6.87;100.00
50087;BME280;35967;50.718;7.050;2024-02-26T22:15:34;100204.09;;;6.83;100.00
50087;BME280;35967;50.718;7.050;2024-02-26T22:25:37;100211.03;;;6.75;100.00
50087;BME280;35967;50.718;7.050;2024-02-26T22:35:42;100215.13;;;6.85;100.00
50087;BME280;35967;50.718;7.050;2024-02-26T22:45:45;100228.88;;;6.79;100.00
50087;BME280;35967;50.718;7.050;2024-02-26T22:55:49;100238.31;;;6.76;100.00
50087;BME280;35967;50.718;7.050;2024-02-26T23:05:55;100261.34;;;6.73;100.00
50087;BME280;35967;50.718;7.050;2024-02-26T23:16:00;100281.84;;;6.70;100.00
50087;BME280;35967;50.718;7.050;2024-02-26T23:26:04;100283.59;;;6.68;100.00
50087;BME280;35967;50.718;7.050;2024-02-26T23:36:09;100295.53;;;6.69;100.00
50087;BME280;35967;50.718;7.050;2024-02-26T23:46:12;100309.13;;;6.72;100.00
50087;BME280;35967;50.718;7.050;2024-02-26T23:56:16;100314.16;;;6.78;100.00
